Time;durP1;ratioP1;P1;durP2;ratioP2;P2;SDS_P1;SDS_P2;PMS_P1;PMS_P2;Temp;Humidity;BMP_temperature;BMP_pressure;BME280_temperature;BME280_humidity;BME280_pressure;Samples;Min_cycle;Max_cycle;Signal;HPM_P1;HPM_P2
2023/04/29 00:00:22;;;;;;;9.00;4.60;;;;;;;;;;5000906;28;20034;-90
2023/04/29 00:02:49;;;;;;;10.07;4.07;;;;;;;;;;5000766;28;20033;-91
2023/04/29 00:05:15;;;;;;;8.98;4.32;;;;;;;;;;4983092;28;20124;-90
2023/04/29 00:07:42;;;;;;;6.93;4.10;;;;;;;;;;4983209;28;20022;-91
2023/04/29 00:10:08;;;;;;;10.32;4.18;;;;;;;;;;5000784;28;20026;-89
2023/04/29 00:15:51;;;;;;;8.02;4.80;;;;;;;;;;5000911;28;20037;-88
2023/04/29 00:18:17;;;;;;;9.02;4.20;;;;;;;;;;4983771;28;20030;-89
2023/04/29 00:20:43;;;;;;;9.55;4.75;;;;;;;;;;5000807;28;20034;-91
2023/04/29 00:23:10;;;;;;;9.60;4.65;;;;;;;;;;5000438;28;20050;-92
2023/04/29 00:25:37;;;;;;;9.52;4.57;;;;;;;;;;4983554;28;20030;-90
2023/04/29 00:28:04;;;;;;;8.13;4.30;;;;;;;;;;4982903;28;20034;-92
2023/04/29 00:30:31;;;;;;;9.40;4.78;;;;;;;;;;5000317;28;20357;-92
2023/04/29 00:32:57;;;;;;;9.30;4.88;;;;;;;;;;5000315;28;20404;-93
2023/04/29 00:35:23;;;;;;;8.02;4.68;;;;;;;;;;5000534;28;20039;-92
2023/04/29 00:37:49;;;;;;;9.23;4.82;;;;;;;;;;4982884;28;20346;-92
2023/04/29 00:40:16;;;;;;;10.77;4.57;;;;;;;;;;4983124;28;20026;-93
2023/04/29 00:42:42;;;;;;;8.95;4.63;;;;;;;;;;4983084;28;20077;-92
2023/04/29 00:45:12;;;;;;;8.07;4.40;;;;;;;;;;4982571;28;20042;-91
2023/04/29 00:47:38;;;;;;;11.57;5.05;;;;;;;;;;4982622;28;20069;-90
2023/04/29 00:50:06;;;;;;;11.52;5.15;;;;;;;;;;4982885;28;20038;-92
2023/04/29 00:52:32;;;;;;;9.95;5.70;;;;;;;;;;4999991;28;20420;-91
2023/04/29 00:54:58;;;;;;;9.43;4.90;;;;;;;;;;4999923;28;20041;-92
2023/04/29 01:03:32;;;;;;;8.15;4.88;;;;;;;;;;4980636;28;20468;-91
2023/04/29 01:06:22;;;;;;;11.60;5.13;;;;;;;;;;4980502;28;20049;-92
2023/04/29 01:09:07;;;;;;;13.95;6.10;;;;;;;;;;4955254;28;20121;-93
2023/04/29 01:11:43;;;;;;;10.15;6.05;;;;;;;;;;4980279;28;20050;-93
2023/04/29 01:14:09;;;;;;;11.98;7.28;;;;;;;;;;4979217;28;20046;-93
2023/04/29 01:16:48;;;;;;;12.15;6.50;;;;;;;;;;4978966;28;20333;-92
2023/04/29 01:19:44;;;;;;;12.55;7.47;;;;;;;;;;4980026;28;20031;-93
2023/04/29 01:22:11;;;;;;;18.33;8.13;;;;;;;;;;4901994;29;20037;-94
2023/04/29 01:24:37;;;;;;;9.18;7.10;;;;;;;;;;4901253;29;20059;-95
2023/04/29 01:27:20;;;;;;;14.77;8.05;;;;;;;;;;4903601;29;20340;-94
2023/04/29 01:29:46;;;;;;;15.82;7.68;;;;;;;;;;4920560;29;20044;-93
2023/04/29 01:32:22;;;;;;;10.98;6.90;;;;;;;;;;4920787;29;20051;-93
2023/04/29 01:34:58;;;;;;;13.68;7.60;;;;;;;;;;4919566;29;20052;-93
2023/04/29 01:37:27;;;;;;;13.10;8.20;;;;;;;;;;4920634;29;20043;-93
2023/04/29 01:40:12;;;;;;;15.18;8.02;;;;;;;;;;4920589;29;20039;-94
2023/04/29 01:43:10;;;;;;;15.93;8.15;;;;;;;;;;4920555;29;20032;-93
2023/04/29 01:45:41;;;;;;;12.57;7.78;;;;;;;;;;4864097;29;20069;-90
2023/04/29 01:48:08;;;;;;;11.82;7.53;;;;;;;;;;4863968;29;20049;-90
2023/04/29 01:50:34;;;;;;;11.25;8.30;;;;;;;;;;4864303;29;20045;-90
2023/04/29 01:53:00;;;;;;;15.65;8.30;;;;;;;;;;4864312;29;20037;-91
2023/04/29 01:55:26;;;;;;;13.43;7.60;;;;;;;;;;4864221;29;20041;-90
2023/04/29 02:00:55;;;;;;;9.38;7.15;;;;;;;;;;4920644;29;20035;-91
2023/04/29 02:03:21;;;;;;;10.63;7.13;;;;;;;;;;4920363;29;20447;-92
2023/04/29 02:05:49;;;;;;;10.55;6.65;;;;;;;;;;4920161;29;20098;-93
2023/04/29 02:08:15;;;;;;;12.25;7.13;;;;;;;;;;4904463;29;20081;-92
2023/04/29 02:10:41;;;;;;;13.35;7.50;;;;;;;;;;4920086;29;20055;-92
2023/04/29 02:13:09;;;;;;;11.27;7.25;;;;;;;;;;4904215;29;20103;-91
2023/04/29 02:15:35;;;;;;;12.45;7.18;;;;;;;;;;4920151;29;20042;-94
2023/04/29 02:18:02;;;;;;;11.52;7.18;;;;;;;;;;4920076;29;20055;-91
2023/04/29 02:20:28;;;;;;;13.18;7.60;;;;;;;;;;4951613;28;20048;-92
2023/04/29 02:22:54;;;;;;;11.43;7.70;;;;;;;;;;4998730;28;20101;-92
2023/04/29 02:25:20;;;;;;;14.63;7.80;;;;;;;;;;4981462;28;20026;-91
2023/04/29 02:27:46;;;;;;;10.38;6.80;;;;;;;;;;4998343;28;20037;-92
2023/04/29 02:30:12;;;;;;;10.70;7.05;;;;;;;;;;4997956;28;20082;-93
2023/04/29 02:32:38;;;;;;;10.63;6.35;;;;;;;;;;4998305;28;20023;-91
2023/04/29 02:35:05;;;;;;;9.13;6.10;;;;;;;;;;4998134;28;20018;-91
2023/04/29 02:37:31;;;;;;;14.63;6.85;;;;;;;;;;4980701;28;20026;-93
2023/04/29 02:39:57;;;;;;;9.57;6.47;;;;;;;;;;4998213;28;20035;-92
2023/04/29 02:42:23;;;;;;;12.05;6.75;;;;;;;;;;4981127;28;20038;-92
2023/04/29 02:44:49;;;;;;;10.32;6.78;;;;;;;;;;4981020;28;20022;-93
2023/04/29 02:47:15;;;;;;;10.73;6.28;;;;;;;;;;4998356;28;20117;-93
2023/04/29 02:49:41;;;;;;;11.93;6.15;;;;;;;;;;4997960;28;20041;-93
2023/04/29 02:52:07;;;;;;;9.57;6.07;;;;;;;;;;4980880;28;20028;-94
2023/04/29 02:54:34;;;;;;;8.15;6.15;;;;;;;;;;4998022;28;20117;-93
2023/04/29 03:00:03;;;;;;;8.77;6.03;;;;;;;;;;4998259;28;20125;-94
2023/04/29 03:02:29;;;;;;;11.40;5.95;;;;;;;;;;4998307;28;20026;-93
2023/04/29 03:04:55;;;;;;;7.13;5.30;;;;;;;;;;4998200;28;20027;-93
2023/04/29 03:07:21;;;;;;;11.57;5.78;;;;;;;;;;4980931;28;20022;-94
2023/04/29 03:09:47;;;;;;;8.90;5.65;;;;;;;;;;4998181;28;20102;-92
2023/04/29 03:15:19;;;;;;;10.25;6.18;;;;;;;;;;4997979;28;20452;-94
2023/04/29 03:17:45;;;;;;;9.05;5.65;;;;;;;;;;4997651;28;20023;-92
2023/04/29 03:20:11;;;;;;;9.68;5.82;;;;;;;;;;4980017;28;20030;-92
2023/04/29 03:22:37;;;;;;;10.23;6.20;;;;;;;;;;4998046;28;20037;-92
2023/04/29 03:25:04;;;;;;;8.98;6.13;;;;;;;;;;4996015;28;20028;-92
2023/04/29 03:30:43;;;;;;;9.75;6.18;;;;;;;;;;4994989;28;20128;-92
2023/04/29 03:33:09;;;;;;;8.68;5.70;;;;;;;;;;4980180;28;20492;-92
2023/04/29 03:35:35;;;;;;;13.02;5.95;;;;;;;;;;4998038;28;20298;-92
2023/04/29 03:38:01;;;;;;;10.25;5.82;;;;;;;;;;4997988;28;20019;-91
2023/04/29 03:40:28;;;;;;;10.93;6.03;;;;;;;;;;4980551;28;20440;-92
2023/04/29 03:43:31;;;;;;;10.65;6.00;;;;;;;;;;4980193;28;20042;-92
2023/04/29 03:45:57;;;;;;;7.18;5.75;;;;;;;;;;4965111;28;20117;-92
2023/04/29 03:48:23;;;;;;;11.40;6.35;;;;;;;;;;4979326;28;20057;-90
2023/04/29 03:50:49;;;;;;;9.30;5.93;;;;;;;;;;4980768;28;20031;-91
2023/04/29 03:53:16;;;;;;;9.88;6.00;;;;;;;;;;4980891;28;20323;-91
2023/04/29 03:55:42;;;;;;;14.57;6.57;;;;;;;;;;4981929;28;20320;-92
2023/04/29 03:58:08;;;;;;;13.32;6.07;;;;;;;;;;4980601;28;20027;-91
2023/04/29 04:00:34;;;;;;;9.60;5.55;;;;;;;;;;4979834;28;20097;-90
2023/04/29 04:03:00;;;;;;;9.55;5.82;;;;;;;;;;4964791;28;20054;-91
2023/04/29 04:05:26;;;;;;;10.60;5.78;;;;;;;;;;4981843;28;20030;-92
2023/04/29 04:07:52;;;;;;;9.60;5.75;;;;;;;;;;4981944;28;20326;-93
2023/04/29 04:10:19;;;;;;;13.50;6.18;;;;;;;;;;4981526;28;20077;-93
2023/04/29 04:12:48;;;;;;;11.57;6.75;;;;;;;;;;4981563;28;20023;-93
2023/04/29 04:15:15;;;;;;;9.10;6.35;;;;;;;;;;4990677;28;20033;-93
2023/04/29 04:17:42;;;;;;;9.52;6.63;;;;;;;;;;5000953;28;20101;-90
2023/04/29 04:20:08;;;;;;;10.05;5.85;;;;;;;;;;4965722;28;20031;-92
2023/04/29 04:22:34;;;;;;;9.75;5.70;;;;;;;;;;4979757;28;20034;-92
2023/04/29 04:25:00;;;;;;;12.57;5.93;;;;;;;;;;4979798;28;20035;-92
2023/04/29 04:27:27;;;;;;;11.80;6.38;;;;;;;;;;4987551;28;20053;-94
2023/04/29 04:29:53;;;;;;;11.02;6.07;;;;;;;;;;4983339;28;20045;-94
2023/04/29 04:32:20;;;;;;;9.68;6.05;;;;;;;;;;4994265;28;20050;-95
2023/04/29 04:34:47;;;;;;;10.18;5.88;;;;;;;;;;4981411;28;20027;-94
2023/04/29 04:37:14;;;;;;;11.93;6.50;;;;;;;;;;4981187;28;20027;-93
2023/04/29 04:39:40;;;;;;;8.93;5.90;;;;;;;;;;4981135;28;20158;-94
2023/04/29 04:42:06;;;;;;;7.13;5.13;;;;;;;;;;4980590;28;20026;-93
2023/04/29 04:44:32;;;;;;;9.82;5.25;;;;;;;;;;4980631;28;20027;-94
2023/04/29 04:47:01;;;;;;;9.35;5.32;;;;;;;;;;4983026;28;20035;-95
2023/04/29 04:49:27;;;;;;;10.65;6.00;;;;;;;;;;4983423;28;20035;-94
2023/04/29 04:51:53;;;;;;;9.63;5.50;;;;;;;;;;4982375;28;20038;-95
2023/04/29 04:54:20;;;;;;;9.40;5.75;;;;;;;;;;4979720;28;20031;-94
2023/04/29 04:59:49;;;;;;;14.45;6.32;;;;;;;;;;4982169;28;20034;-94
2023/04/29 05:02:15;;;;;;;9.50;5.78;;;;;;;;;;4984740;28;20066;-95
2023/04/29 05:04:41;;;;;;;13.23;5.93;;;;;;;;;;4976292;28;20047;-94
2023/04/29 05:07:07;;;;;;;8.13;5.25;;;;;;;;;;4947963;29;20031;-95
2023/04/29 05:09:34;;;;;;;9.40;5.57;;;;;;;;;;4948477;29;20038;-95
2023/04/29 05:12:00;;;;;;;11.77;5.75;;;;;;;;;;4946959;29;20330;-95
2023/04/29 05:14:26;;;;;;;12.10;6.32;;;;;;;;;;4952180;28;20023;-94
2023/04/29 05:16:57;;;;;;;11.27;5.80;;;;;;;;;;4983153;28;20060;-94
2023/04/29 05:19:24;;;;;;;13.35;8.77;;;;;;;;;;4989251;28;20054;-95
2023/04/29 05:21:51;;;;;;;12.68;8.05;;;;;;;;;;4985666;28;20027;-92
2023/04/29 05:24:17;;;;;;;8.35;5.93;;;;;;;;;;4973015;28;20097;-91
2023/04/29 05:26:43;;;;;;;11.50;5.47;;;;;;;;;;4982175;28;20034;-90
2023/04/29 05:29:12;;;;;;;10.20;5.57;;;;;;;;;;4962221;28;20043;-88
2023/04/29 05:31:38;;;;;;;14.35;6.78;;;;;;;;;;4990714;28;20088;-86
2023/04/29 05:34:04;;;;;;;14.07;8.20;;;;;;;;;;4981557;28;20417;-78
2023/04/29 05:36:30;;;;;;;15.82;8.77;;;;;;;;;;4981133;28;20026;-84
2023/04/29 05:38:57;;;;;;;25.83;10.90;;;;;;;;;;4979520;28;20413;-82
2023/04/29 05:41:23;;;;;;;43.15;13.68;;;;;;;;;;4979414;28;20023;-80
2023/04/29 05:43:50;;;;;;;46.88;14.18;;;;;;;;;;4979162;28;20031;-80
2023/04/29 05:46:16;;;;;;;25.38;8.50;;;;;;;;;;4978054;28;20023;-81
2023/04/29 05:48:42;;;;;;;31.17;9.50;;;;;;;;;;4978710;28;20118;-90
2023/04/29 05:51:08;;;;;;;33.55;9.95;;;;;;;;;;4979117;28;20042;-92
2023/04/29 05:53:37;;;;;;;43.78;11.98;;;;;;;;;;4979557;28;20154;-90
2023/04/29 05:56:07;;;;;;;37.92;11.90;;;;;;;;;;4977369;28;20062;-92
2023/04/29 05:58:33;;;;;;;30.50;9.75;;;;;;;;;;4960211;29;20402;-94
2023/04/29 06:00:59;;;;;;;19.40;7.30;;;;;;;;;;4943051;29;20039;-93
2023/04/29 06:03:25;;;;;;;17.05;7.07;;;;;;;;;;4943069;29;20058;-92
2023/04/29 06:05:51;;;;;;;19.77;7.88;;;;;;;;;;4959865;29;20027;-93
2023/04/29 06:08:17;;;;;;;16.75;8.02;;;;;;;;;;4943073;29;20390;-92
2023/04/29 06:10:43;;;;;;;22.17;9.57;;;;;;;;;;4959452;28;20038;-93
2023/04/29 06:13:10;;;;;;;17.90;9.23;;;;;;;;;;4959595;29;20425;-92
2023/04/29 06:15:36;;;;;;;18.17;8.98;;;;;;;;;;4942603;29;20035;-91
2023/04/29 06:18:02;;;;;;;14.05;8.48;;;;;;;;;;4942796;29;20432;-93
2023/04/29 06:20:28;;;;;;;14.40;9.20;;;;;;;;;;4959768;29;20042;-92
2023/04/29 06:22:54;;;;;;;14.88;8.95;;;;;;;;;;4959648;29;20041;-93
2023/04/29 06:25:20;;;;;;;14.55;7.47;;;;;;;;;;4959882;29;20027;-91
2023/04/29 06:27:48;;;;;;;13.95;7.47;;;;;;;;;;4959836;29;20064;-85
2023/04/29 06:30:14;;;;;;;12.20;7.85;;;;;;;;;;4959533;29;20047;-90
2023/04/29 06:32:40;;;;;;;13.43;7.53;;;;;;;;;;4959386;28;20047;-90
2023/04/29 06:35:06;;;;;;;11.55;6.85;;;;;;;;;;4942526;29;20039;-91
2023/04/29 06:37:33;;;;;;;10.68;6.05;;;;;;;;;;4942829;29;20019;-90
2023/04/29 06:39:59;;;;;;;11.32;5.63;;;;;;;;;;4959464;29;20442;-92
2023/04/29 06:42:25;;;;;;;12.20;6.18;;;;;;;;;;4959529;29;20042;-91
2023/04/29 06:44:51;;;;;;;10.63;5.70;;;;;;;;;;4959519;29;20027;-91
2023/04/29 06:47:17;;;;;;;8.95;5.88;;;;;;;;;;4942454;29;20032;-92
2023/04/29 06:49:43;;;;;;;10.50;5.60;;;;;;;;;;4942502;29;20070;-91
2023/04/29 06:52:09;;;;;;;12.50;5.72;;;;;;;;;;4942352;29;20040;-92
2023/04/29 06:54:36;;;;;;;10.38;5.75;;;;;;;;;;4959303;29;20065;-91
2023/04/29 06:57:02;;;;;;;11.20;5.65;;;;;;;;;;4942176;29;20027;-92
2023/04/29 06:59:28;;;;;;;12.23;4.75;;;;;;;;;;4942582;29;20031;-91
2023/04/29 07:01:55;;;;;;;7.63;4.88;;;;;;;;;;4942332;29;20027;-93
2023/04/29 07:04:21;;;;;;;9.27;5.60;;;;;;;;;;4959306;29;20027;-91
2023/04/29 07:06:47;;;;;;;13.45;5.03;;;;;;;;;;4959161;29;20166;-92
2023/04/29 07:09:13;;;;;;;9.13;5.00;;;;;;;;;;4959269;29;20027;-91
2023/04/29 07:11:40;;;;;;;8.10;4.95;;;;;;;;;;4942234;29;20426;-91
2023/04/29 07:14:07;;;;;;;8.45;4.53;;;;;;;;;;4959399;29;20023;-92
2023/04/29 07:16:33;;;;;;;10.75;5.15;;;;;;;;;;4959228;29;20441;-91
2023/04/29 07:18:59;;;;;;;7.80;4.47;;;;;;;;;;4942129;29;20019;-91
2023/04/29 07:21:26;;;;;;;8.73;4.50;;;;;;;;;;4959107;29;20061;-92
2023/04/29 07:23:54;;;;;;;11.95;5.40;;;;;;;;;;4960587;28;20035;-92
2023/04/29 07:26:20;;;;;;;9.48;4.45;;;;;;;;;;4962736;29;20103;-92
2023/04/29 07:28:48;;;;;;;10.60;5.30;;;;;;;;;;4962880;29;20477;-92
2023/04/29 07:31:14;;;;;;;8.95;5.15;;;;;;;;;;4945705;29;20106;-91
2023/04/29 07:33:40;;;;;;;11.43;4.70;;;;;;;;;;4962917;29;20043;-93
2023/04/29 07:36:06;;;;;;;12.68;4.93;;;;;;;;;;4962720;29;20429;-92
2023/04/29 07:38:33;;;;;;;6.82;4.45;;;;;;;;;;4962753;29;20027;-92
2023/04/29 07:40:59;;;;;;;8.90;5.35;;;;;;;;;;4962439;29;20031;-91
2023/04/29 07:43:25;;;;;;;14.35;6.95;;;;;;;;;;4945414;29;20078;-91
2023/04/29 07:45:51;;;;;;;17.50;8.00;;;;;;;;;;4945490;29;20039;-92
2023/04/29 07:48:18;;;;;;;28.27;14.52;;;;;;;;;;4962612;29;20387;-92
2023/04/29 07:50:44;;;;;;;22.83;13.15;;;;;;;;;;4962126;29;20058;-90
2023/04/29 07:53:10;;;;;;;17.50;11.18;;;;;;;;;;4962277;29;20407;-92
2023/04/29 07:55:37;;;;;;;10.73;5.43;;;;;;;;;;4945405;29;20023;-91
2023/04/29 07:58:03;;;;;;;10.18;5.00;;;;;;;;;;4962234;29;20054;-93
2023/04/29 08:00:30;;;;;;;7.43;4.70;;;;;;;;;;4945368;29;20039;-92
2023/04/29 08:02:56;;;;;;;8.98;4.45;;;;;;;;;;4945168;29;20042;-91
2023/04/29 08:05:22;;;;;;;13.82;5.00;;;;;;;;;;4945205;29;20032;-91
2023/04/29 08:07:52;;;;;;;7.05;4.20;;;;;;;;;;4945151;29;20046;-91
2023/04/29 08:10:18;;;;;;;8.15;4.18;;;;;;;;;;4962034;29;20050;-92
2023/04/29 08:12:48;;;;;;;7.75;4.30;;;;;;;;;;4962123;29;20031;-91
2023/04/29 08:15:15;;;;;;;10.32;4.65;;;;;;;;;;4945047;29;20027;-93
2023/04/29 08:17:41;;;;;;;8.77;3.95;;;;;;;;;;4945065;29;20020;-93
2023/04/29 08:20:08;;;;;;;7.22;4.00;;;;;;;;;;4961921;29;20023;-92
2023/04/29 08:22:34;;;;;;;6.95;3.95;;;;;;;;;;4944679;29;20090;-92
2023/04/29 08:25:02;;;;;;;9.20;3.85;;;;;;;;;;4961504;29;20410;-91
2023/04/29 08:30:31;;;;;;;9.10;6.05;;;;;;;;;;4980961;28;20050;-85
2023/04/29 08:32:57;;;;;;;8.52;5.32;;;;;;;;;;4979584;28;20444;-85
2023/04/29 08:35:23;;;;;;;7.28;4.63;;;;;;;;;;4980062;28;20027;-86
2023/04/29 08:37:49;;;;;;;7.20;4.32;;;;;;;;;;4980054;28;20030;-86
2023/04/29 08:40:15;;;;;;;6.78;4.60;;;;;;;;;;4980966;28;20023;-85
2023/04/29 08:42:43;;;;;;;9.77;5.15;;;;;;;;;;4980649;28;20027;-86
2023/04/29 08:45:10;;;;;;;10.38;6.20;;;;;;;;;;4980836;28;20031;-86
2023/04/29 08:47:36;;;;;;;12.05;6.97;;;;;;;;;;4980698;28;20098;-85
2023/04/29 08:50:04;;;;;;;10.95;5.90;;;;;;;;;;4979625;28;20022;-86
2023/04/29 08:52:31;;;;;;;17.88;5.47;;;;;;;;;;4980397;28;20039;-85
2023/04/29 08:54:57;;;;;;;6.53;4.20;;;;;;;;;;4979367;28;20035;-85
2023/04/29 08:57:25;;;;;;;7.22;4.10;;;;;;;;;;4979446;28;20022;-85
2023/04/29 08:59:52;;;;;;;6.43;3.83;;;;;;;;;;4979542;28;20034;-85
2023/04/29 09:02:20;;;;;;;10.05;4.40;;;;;;;;;;4980284;28;20034;-86
2023/04/29 09:04:49;;;;;;;10.73;4.60;;;;;;;;;;4979267;28;20027;-85
2023/04/29 09:07:15;;;;;;;10.85;5.22;;;;;;;;;;4980065;28;20027;-86
2023/04/29 09:09:42;;;;;;;6.95;4.78;;;;;;;;;;4979246;28;20299;-86
2023/04/29 09:12:08;;;;;;;6.40;3.97;;;;;;;;;;4980226;28;20034;-85
2023/04/29 09:14:35;;;;;;;8.13;4.03;;;;;;;;;;4979215;28;20023;-86
2023/04/29 09:17:01;;;;;;;7.80;4.05;;;;;;;;;;4979165;28;20026;-85
2023/04/29 09:19:32;;;;;;;6.88;4.30;;;;;;;;;;4979937;28;20033;-85
2023/04/29 09:21:58;;;;;;;7.40;4.28;;;;;;;;;;4979048;28;20069;-86
2023/04/29 09:24:26;;;;;;;9.13;3.42;;;;;;;;;;4979650;28;20046;-85
2023/04/29 09:26:52;;;;;;;5.00;3.35;;;;;;;;;;4978937;28;20045;-85
2023/04/29 09:29:18;;;;;;;5.75;3.08;;;;;;;;;;4979940;28;20047;-85
2023/04/29 09:31:45;;;;;;;5.40;2.25;;;;;;;;;;4978455;28;20093;-86
2023/04/29 09:34:13;;;;;;;4.28;3.10;;;;;;;;;;4979812;28;20457;-85
2023/04/29 09:36:46;;;;;;;10.18;4.05;;;;;;;;;;4979664;28;20023;-86
2023/04/29 09:39:19;;;;;;;3.92;2.65;;;;;;;;;;4979670;28;20094;-85
2023/04/29 09:41:52;;;;;;;6.88;3.03;;;;;;;;;;4978694;28;20031;-86
2023/04/29 09:44:18;;;;;;;6.70;2.55;;;;;;;;;;4978562;28;20101;-85
2023/04/29 09:46:54;;;;;;;6.50;2.50;;;;;;;;;;4977735;28;20388;-84
2023/04/29 09:49:27;;;;;;;7.75;2.88;;;;;;;;;;4979744;28;20029;-85
2023/04/29 09:51:59;;;;;;;5.35;2.53;;;;;;;;;;4978348;28;20432;-85
2023/04/29 09:54:29;;;;;;;4.78;3.05;;;;;;;;;;4978594;28;20030;-86
2023/04/29 09:56:56;;;;;;;6.13;3.17;;;;;;;;;;4979209;28;20027;-86
2023/04/29 09:59:23;;;;;;;4.82;2.90;;;;;;;;;;4979336;28;20365;-86
2023/04/29 10:01:50;;;;;;;5.45;2.70;;;;;;;;;;4979257;28;20026;-86
2023/04/29 10:04:19;;;;;;;9.55;2.20;;;;;;;;;;4978346;28;20118;-85
2023/04/29 10:06:48;;;;;;;6.53;2.60;;;;;;;;;;4978145;28;20078;-85
2023/04/29 10:09:15;;;;;;;5.20;2.53;;;;;;;;;;4978365;28;20159;-86
2023/04/29 10:11:42;;;;;;;5.45;2.17;;;;;;;;;;4978150;28;20037;-86
2023/04/29 10:14:12;;;;;;;13.10;3.05;;;;;;;;;;4978674;28;20027;-86
2023/04/29 10:16:40;;;;;;;11.50;2.67;;;;;;;;;;4978980;28;20031;-85
2023/04/29 10:19:10;;;;;;;5.63;3.00;;;;;;;;;;4978032;28;20058;-86
2023/04/29 10:21:37;;;;;;;5.07;2.67;;;;;;;;;;4979063;28;20026;-85
2023/04/29 10:24:03;;;;;;;2.63;2.08;;;;;;;;;;4979045;28;20410;-86
2023/04/29 10:26:31;;;;;;;5.53;2.58;;;;;;;;;;4978937;28;20035;-86
2023/04/29 10:28:58;;;;;;;4.85;2.20;;;;;;;;;;4979249;28;20023;-86
2023/04/29 10:31:31;;;;;;;4.97;2.60;;;;;;;;;;4977759;28;20046;-85
2023/04/29 10:33:58;;;;;;;4.45;2.30;;;;;;;;;;4978984;28;20019;-86
2023/04/29 10:36:29;;;;;;;4.75;2.55;;;;;;;;;;4977525;28;20037;-86
2023/04/29 10:38:56;;;;;;;5.15;2.47;;;;;;;;;;4977809;28;20410;-85
2023/04/29 10:41:25;;;;;;;6.70;2.40;;;;;;;;;;4978680;28;20061;-85
2023/04/29 10:43:52;;;;;;;3.00;2.10;;;;;;;;;;4978895;28;20027;-86
2023/04/29 10:46:25;;;;;;;4.43;2.40;;;;;;;;;;4977755;28;20027;-85
2023/04/29 10:48:56;;;;;;;4.47;2.97;;;;;;;;;;4978670;28;20110;-85
2023/04/29 10:51:30;;;;;;;4.23;2.53;;;;;;;;;;4978481;28;20042;-85
2023/04/29 10:54:02;;;;;;;4.65;2.55;;;;;;;;;;4978547;28;20031;-86
2023/04/29 10:56:46;;;;;;;4.18;2.45;;;;;;;;;;4977617;28;20023;-85
2023/04/29 10:59:14;;;;;;;4.50;2.30;;;;;;;;;;4982753;28;20417;-86
2023/04/29 11:01:50;;;;;;;4.25;2.33;;;;;;;;;;4981546;28;20081;-85
2023/04/29 11:04:17;;;;;;;5.32;2.30;;;;;;;;;;4982530;28;20027;-85
2023/04/29 11:06:44;;;;;;;6.57;2.35;;;;;;;;;;4982430;28;20030;-86
2023/04/29 11:09:13;;;;;;;8.25;2.53;;;;;;;;;;4982547;28;20037;-86
2023/04/29 11:11:41;;;;;;;4.32;2.40;;;;;;;;;;4982353;28;20449;-86
2023/04/29 11:14:13;;;;;;;5.07;2.58;;;;;;;;;;4982450;28;20026;-85
2023/04/29 11:16:48;;;;;;;5.25;2.90;;;;;;;;;;4982406;28;20069;-86
2023/04/29 11:19:16;;;;;;;8.00;2.83;;;;;;;;;;4981174;28;20031;-86
2023/04/29 11:21:44;;;;;;;4.03;2.47;;;;;;;;;;4982473;28;20078;-86
2023/04/29 11:24:11;;;;;;;5.68;3.17;;;;;;;;;;4980849;28;20035;-86
2023/04/29 11:26:38;;;;;;;12.30;2.65;;;;;;;;;;4982322;28;20027;-85
2023/04/29 11:29:10;;;;;;;5.38;2.60;;;;;;;;;;4982107;28;20054;-86
2023/04/29 11:31:38;;;;;;;3.55;2.58;;;;;;;;;;4980578;28;20043;-86
2023/04/29 11:34:05;;;;;;;4.20;2.42;;;;;;;;;;4981123;28;20484;-85
2023/04/29 11:36:32;;;;;;;6.03;2.72;;;;;;;;;;4982335;28;20027;-86
2023/04/29 11:39:00;;;;;;;5.25;2.83;;;;;;;;;;4980629;28;20027;-86
2023/04/29 11:41:28;;;;;;;8.98;3.47;;;;;;;;;;4981987;28;20023;-85
2023/04/29 11:44:02;;;;;;;9.38;2.95;;;;;;;;;;4981768;28;20079;-85
2023/04/29 11:46:31;;;;;;;8.48;2.80;;;;;;;;;;4981089;28;20041;-85
2023/04/29 11:49:01;;;;;;;5.93;2.75;;;;;;;;;;4981766;28;20035;-86
2023/04/29 11:51:27;;;;;;;5.00;2.72;;;;;;;;;;4980545;28;20031;-85
2023/04/29 11:53:54;;;;;;;5.60;2.80;;;;;;;;;;4980694;28;20031;-85
2023/04/29 11:56:25;;;;;;;6.38;2.78;;;;;;;;;;4981535;28;20037;-85
2023/04/29 11:59:00;;;;;;;3.95;2.20;;;;;;;;;;4980425;28;20341;-86
2023/04/29 12:01:26;;;;;;;5.10;2.80;;;;;;;;;;4981457;28;20386;-86
2023/04/29 12:03:57;;;;;;;5.03;2.40;;;;;;;;;;4981560;28;20026;-86
2023/04/29 12:06:26;;;;;;;4.63;2.33;;;;;;;;;;4981400;28;20444;-86
2023/04/29 12:08:52;;;;;;;6.63;2.38;;;;;;;;;;4980485;28;20043;-86
2023/04/29 12:11:19;;;;;;;5.28;2.30;;;;;;;;;;4981570;28;20027;-86
2023/04/29 12:13:46;;;;;;;6.68;2.65;;;;;;;;;;4980041;28;20062;-86
2023/04/29 12:16:12;;;;;;;9.98;2.85;;;;;;;;;;4980167;28;20029;-86
2023/04/29 12:18:38;;;;;;;5.65;2.75;;;;;;;;;;4981127;28;20448;-86
2023/04/29 12:21:04;;;;;;;6.53;2.80;;;;;;;;;;4979718;28;20035;-85
2023/04/29 12:23:30;;;;;;;4.68;2.75;;;;;;;;;;4981232;28;20047;-86
2023/04/29 12:25:57;;;;;;;5.32;2.60;;;;;;;;;;4980892;28;20381;-85
2023/04/29 12:28:23;;;;;;;3.90;2.50;;;;;;;;;;4981146;28;20053;-86
2023/04/29 12:30:51;;;;;;;6.63;2.03;;;;;;;;;;4980569;28;20031;-86
2023/04/29 12:33:23;;;;;;;4.95;3.00;;;;;;;;;;4980971;28;20038;-85
2023/04/29 12:35:52;;;;;;;6.47;2.45;;;;;;;;;;4980794;28;20023;-85
2023/04/29 12:38:29;;;;;;;10.05;3.20;;;;;;;;;;4980804;28;20493;-85
2023/04/29 12:41:03;;;;;;;11.40;3.42;;;;;;;;;;4980793;28;20046;-86
2023/04/29 12:43:30;;;;;;;8.27;2.83;;;;;;;;;;4980588;28;20169;-86
2023/04/29 12:46:02;;;;;;;7.72;3.00;;;;;;;;;;4980900;28;20326;-84
2023/04/29 12:48:31;;;;;;;6.60;2.58;;;;;;;;;;4980630;28;20187;-86
2023/04/29 12:50:58;;;;;;;3.40;2.30;;;;;;;;;;4980586;28;20037;-85
2023/04/29 12:53:26;;;;;;;5.38;2.70;;;;;;;;;;4980505;28;20066;-85
2023/04/29 12:55:52;;;;;;;5.38;2.97;;;;;;;;;;4979456;28;20029;-85
2023/04/29 12:58:18;;;;;;;8.55;2.58;;;;;;;;;;4979543;28;20034;-85
2023/04/29 13:00:44;;;;;;;2.95;2.13;;;;;;;;;;4980160;28;20031;-84
2023/04/29 13:03:10;;;;;;;4.47;2.35;;;;;;;;;;4979038;28;20037;-85
2023/04/29 13:05:36;;;;;;;8.02;3.15;;;;;;;;;;4980011;28;20034;-85
2023/04/29 13:08:05;;;;;;;4.03;2.40;;;;;;;;;;4980209;28;20025;-85
2023/04/29 13:10:31;;;;;;;5.70;2.63;;;;;;;;;;4979403;28;20023;-85
2023/04/29 13:12:58;;;;;;;5.85;2.30;;;;;;;;;;4980052;28;20023;-85
2023/04/29 13:15:24;;;;;;;4.28;2.40;;;;;;;;;;4979286;28;20022;-86
2023/04/29 13:17:50;;;;;;;4.15;2.38;;;;;;;;;;4980095;28;20102;-85
2023/04/29 13:20:17;;;;;;;4.13;2.60;;;;;;;;;;4979569;28;20356;-85
2023/04/29 13:22:43;;;;;;;9.25;2.85;;;;;;;;;;4979927;28;20316;-86
2023/04/29 13:25:10;;;;;;;6.38;2.58;;;;;;;;;;4979111;28;20081;-85
2023/04/29 13:27:36;;;;;;;4.82;2.50;;;;;;;;;;4978813;28;20038;-85
2023/04/29 13:30:06;;;;;;;6.15;2.58;;;;;;;;;;4980080;28;20030;-85
2023/04/29 13:32:35;;;;;;;4.65;2.10;;;;;;;;;;4978401;28;20042;-85
2023/04/29 13:35:03;;;;;;;6.68;2.58;;;;;;;;;;4978786;28;20033;-85
2023/04/29 13:37:29;;;;;;;3.85;2.65;;;;;;;;;;4978816;28;20118;-86
2023/04/29 13:39:55;;;;;;;6.18;2.42;;;;;;;;;;4978753;28;20325;-86
2023/04/29 13:42:21;;;;;;;4.55;2.40;;;;;;;;;;4979898;28;20042;-86
2023/04/29 13:44:49;;;;;;;4.38;2.70;;;;;;;;;;4978035;28;20030;-85
2023/04/29 13:47:15;;;;;;;4.03;2.40;;;;;;;;;;4978541;28;20369;-85
2023/04/29 13:49:43;;;;;;;5.35;2.25;;;;;;;;;;4979528;28;20027;-85
2023/04/29 13:52:12;;;;;;;4.47;2.25;;;;;;;;;;4979255;28;20155;-85
2023/04/29 13:54:39;;;;;;;3.92;2.15;;;;;;;;;;4978380;28;20049;-86
2023/04/29 13:57:05;;;;;;;6.13;2.50;;;;;;;;;;4979454;28;20035;-85
2023/04/29 13:59:32;;;;;;;3.95;2.30;;;;;;;;;;4979613;28;20082;-85
2023/04/29 14:01:58;;;;;;;5.70;2.90;;;;;;;;;;4977711;28;20046;-84
2023/04/29 14:04:25;;;;;;;6.65;2.60;;;;;;;;;;4978024;28;20075;-84
2023/04/29 14:06:51;;;;;;;12.93;3.10;;;;;;;;;;4979220;28;20037;-85
2023/04/29 14:09:18;;;;;;;3.60;2.55;;;;;;;;;;4979114;28;20023;-85
2023/04/29 14:11:45;;;;;;;5.50;2.40;;;;;;;;;;4977482;28;20452;-84
2023/04/29 14:14:11;;;;;;;6.28;2.90;;;;;;;;;;4979317;28;20027;-85
2023/04/29 14:16:39;;;;;;;5.97;2.45;;;;;;;;;;4978937;28;20027;-85
2023/04/29 14:19:06;;;;;;;6.68;2.85;;;;;;;;;;4979180;28;20026;-85
2023/04/29 14:21:32;;;;;;;4.18;2.35;;;;;;;;;;4979157;28;20026;-85
2023/04/29 14:23:59;;;;;;;4.75;2.33;;;;;;;;;;4970288;28;20027;-85
2023/04/29 14:26:28;;;;;;;8.02;2.97;;;;;;;;;;4959635;28;20050;-85
2023/04/29 14:28:58;;;;;;;14.30;3.78;;;;;;;;;;4978799;28;20458;-85
2023/04/29 14:31:26;;;;;;;4.43;3.22;;;;;;;;;;4961505;28;20059;-85
2023/04/29 14:33:55;;;;;;;8.25;2.80;;;;;;;;;;4961329;28;20034;-86
2023/04/29 14:36:22;;;;;;;4.68;2.50;;;;;;;;;;4978841;28;20026;-85
2023/04/29 14:38:48;;;;;;;15.27;2.88;;;;;;;;;;4978696;28;20175;-84
2023/04/29 14:41:14;;;;;;;5.03;3.00;;;;;;;;;;4978693;28;20023;-85
2023/04/29 14:43:41;;;;;;;11.02;3.67;;;;;;;;;;4978330;28;20028;-84
2023/04/29 14:46:10;;;;;;;10.73;3.40;;;;;;;;;;4974033;28;20027;-84
2023/04/29 14:48:36;;;;;;;8.13;2.92;;;;;;;;;;4977246;28;20114;-89
2023/04/29 14:51:02;;;;;;;4.22;2.65;;;;;;;;;;4961599;28;20031;-85
2023/04/29 14:53:30;;;;;;;5.97;3.08;;;;;;;;;;4960647;28;20031;-85
2023/04/29 14:55:56;;;;;;;8.35;4.63;;;;;;;;;;4977245;28;20047;-84
2023/04/29 14:59:12;;;;;;;6.40;3.58;;;;;;;;;;4973764;28;20330;-85
2023/04/29 15:01:38;;;;;;;5.93;2.88;;;;;;;;;;4961550;28;20089;-84
2023/04/29 15:04:05;;;;;;;6.03;2.63;;;;;;;;;;4969056;28;20417;-85
2023/04/29 15:06:31;;;;;;;7.45;2.60;;;;;;;;;;4957220;28;20039;-84
2023/04/29 15:08:57;;;;;;;7.75;3.22;;;;;;;;;;4969855;28;20086;-84